Time;durP1;ratioP1;P1;durP2;ratioP2;P2;SDS_P1;SDS_P2;PMS_P1;PMS_P2;Temp;Humidity;BMP_temperature;BMP_pressure;BME280_temperature;BME280_humidity;BME280_pressure;Samples;Min_cycle;Max_cycle;Signal;HPM_P1;HPM_P2
2023/05/30 00:02:05;;;;;;;6.82;3.08;;;;;17.70;99052.00;;;;5064477;28;20120;-62
2023/05/30 00:04:32;;;;;;;6.10;3.33;;;;;17.70;99055.00;;;;5062035;28;20045;-62
2023/05/30 00:06:59;;;;;;;7.65;2.95;;;;;17.60;99056.00;;;;5061708;28;20530;-62
2023/05/30 00:09:26;;;;;;;7.28;2.88;;;;;17.60;99052.00;;;;5056835;28;20071;-62
2023/05/30 00:11:54;;;;;;;6.45;3.15;;;;;17.50;99055.00;;;;5057288;28;20053;-62
2023/05/30 00:14:23;;;;;;;5.63;2.58;;;;;17.50;99056.00;;;;5058462;28;20053;-63
2023/05/30 00:16:49;;;;;;;6.43;3.10;;;;;17.50;99058.00;;;;5069049;28;20052;-62
2023/05/30 00:19:16;;;;;;;10.63;2.80;;;;;17.50;99064.00;;;;5071590;28;20144;-62
2023/05/30 00:21:45;;;;;;;9.80;2.58;;;;;17.50;99062.00;;;;5070706;28;20028;-62
2023/05/30 00:24:11;;;;;;;4.38;2.72;;;;;17.60;99065.00;;;;5069476;28;20132;-62
2023/05/30 00:26:38;;;;;;;8.20;2.80;;;;;17.60;99058.00;;;;5068024;28;20120;-62
2023/05/30 00:29:05;;;;;;;7.05;2.60;;;;;17.60;99061.00;;;;5059616;28;20154;-61
2023/05/30 00:31:31;;;;;;;7.70;3.20;;;;;17.60;99055.00;;;;5056118;28;20116;-61
2023/05/30 00:33:59;;;;;;;5.65;2.95;;;;;17.50;99067.00;;;;5055258;28;20413;-61
2023/05/30 00:36:26;;;;;;;6.15;2.90;;;;;17.50;99062.00;;;;5056153;28;20052;-61
2023/05/30 00:38:52;;;;;;;6.78;3.08;;;;;17.50;99064.00;;;;5055226;28;20705;-61
2023/05/30 00:41:19;;;;;;;9.38;3.03;;;;;17.50;99066.00;;;;5057861;28;20128;-61
2023/05/30 00:43:46;;;;;;;8.25;3.35;;;;;17.50;99057.00;;;;5056379;28;20100;-61
2023/05/30 00:46:15;;;;;;;8.82;3.30;;;;;17.50;99060.00;;;;5037391;28;20143;-61
2023/05/30 00:48:41;;;;;;;8.68;3.17;;;;;17.40;99051.00;;;;5054222;28;20049;-62
2023/05/30 00:51:10;;;;;;;5.93;2.97;;;;;17.40;99049.00;;;;5053726;28;20048;-62
2023/05/30 00:53:40;;;;;;;5.30;2.55;;;;;17.40;99049.00;;;;5055435;28;20106;-62
2023/05/30 00:56:08;;;;;;;8.55;3.05;;;;;17.30;99044.00;;;;5056118;28;20497;-62
2023/05/30 00:58:35;;;;;;;8.30;3.17;;;;;17.30;99051.00;;;;5054521;28;20073;-62
2023/05/30 01:01:02;;;;;;;4.60;2.50;;;;;17.20;99038.00;;;;5053811;28;20478;-62
2023/05/30 01:03:32;;;;;;;10.20;3.15;;;;;17.20;99041.00;;;;5054097;28;20041;-63
2023/05/30 01:06:01;;;;;;;5.63;2.80;;;;;17.10;99043.00;;;;5036987;28;20073;-62
2023/05/30 01:08:27;;;;;;;5.80;2.83;;;;;17.10;99042.00;;;;5052962;28;20463;-62
2023/05/30 01:11:10;;;;;;;6.30;2.67;;;;;17.10;99036.00;;;;5053654;28;20071;-62
2023/05/30 01:13:40;;;;;;;7.38;3.60;;;;;17.00;99042.00;;;;5038215;28;20049;-62
2023/05/30 01:16:14;;;;;;;5.47;3.08;;;;;17.00;99044.00;;;;5054630;28;20135;-62
2023/05/30 01:18:55;;;;;;;6.35;2.75;;;;;17.00;99047.00;;;;5041878;28;20053;-62
2023/05/30 01:21:26;;;;;;;5.70;2.63;;;;;17.00;99054.00;;;;5063229;28;20067;-63
2023/05/30 01:23:55;;;;;;;7.35;2.90;;;;;16.90;99042.00;;;;5060622;28;20045;-62
2023/05/30 01:26:56;;;;;;;4.93;2.38;;;;;16.90;99039.00;;;;5064321;28;20571;-62
2023/05/30 01:29:24;;;;;;;7.07;3.10;;;;;16.80;99043.00;;;;5062332;28;20065;-62
2023/05/30 01:31:54;;;;;;;7.15;3.10;;;;;16.80;99038.00;;;;5061020;28;20045;-62
2023/05/30 01:34:22;;;;;;;9.80;3.22;;;;;16.80;99032.00;;;;5054862;28;20417;-62
2023/05/30 01:36:48;;;;;;;8.13;2.92;;;;;16.80;99036.00;;;;5037385;28;20090;-62
2023/05/30 01:39:15;;;;;;;8.02;3.22;;;;;16.70;99025.00;;;;5052697;28;20488;-61
2023/05/30 01:41:56;;;;;;;6.97;3.03;;;;;16.70;99027.00;;;;5055317;28;20170;-61
2023/05/30 01:44:32;;;;;;;5.85;2.80;;;;;16.70;99019.00;;;;5057356;28;20076;-62
2023/05/30 01:47:19;;;;;;;6.22;2.40;;;;;16.60;99034.00;;;;5057621;28;20087;-62
2023/05/30 01:49:55;;;;;;;6.13;2.72;;;;;16.60;99033.00;;;;5058859;28;20136;-61
2023/05/30 01:52:30;;;;;;;7.47;3.35;;;;;16.50;99024.00;;;;5039472;28;20053;-62
2023/05/30 01:55:02;;;;;;;6.95;2.85;;;;;16.40;99035.00;;;;5056090;28;20040;-64
2023/05/30 01:57:30;;;;;;;5.72;2.70;;;;;16.40;99033.00;;;;5057756;28;20042;-63
2023/05/30 02:00:01;;;;;;;5.45;2.70;;;;;16.40;99024.00;;;;5056193;28;20140;-61
2023/05/30 02:02:38;;;;;;;7.03;2.78;;;;;16.30;99025.00;;;;5055378;28;20049;-61
2023/05/30 02:05:05;;;;;;;8.02;2.72;;;;;16.30;99019.00;;;;5056192;28;20132;-61
2023/05/30 02:07:32;;;;;;;7.05;2.92;;;;;16.20;99015.00;;;;5057434;28;20120;-62
2023/05/30 02:09:59;;;;;;;5.65;2.47;;;;;16.20;99023.00;;;;5057256;28;20139;-62
2023/05/30 02:12:26;;;;;;;5.72;2.50;;;;;16.20;99021.00;;;;5057167;28;20037;-62
2023/05/30 02:14:54;;;;;;;6.35;3.10;;;;;16.10;99013.00;;;;5056668;28;20049;-61
2023/05/30 02:17:21;;;;;;;7.70;3.00;;;;;16.10;99017.00;;;;5056377;28;20087;-61
2023/05/30 02:19:48;;;;;;;5.78;2.70;;;;;16.00;99019.00;;;;5054264;28;20049;-63
2023/05/30 02:22:16;;;;;;;8.80;2.88;;;;;16.00;99015.00;;;;5054129;28;20132;-62
2023/05/30 02:24:43;;;;;;;8.48;2.50;;;;;15.90;99014.00;;;;5036728;28;20072;-63
2023/05/30 02:27:10;;;;;;;4.20;2.22;;;;;15.90;99017.00;;;;5054404;28;20065;-63
2023/05/30 02:29:37;;;;;;;8.00;2.70;;;;;15.90;99025.00;;;;5052864;28;20448;-62
2023/05/30 02:32:04;;;;;;;7.30;2.60;;;;;15.90;99020.00;;;;5053624;28;20065;-62
2023/05/30 02:34:30;;;;;;;4.35;2.30;;;;;15.90;99016.00;;;;5020021;28;20057;-62
2023/05/30 02:37:01;;;;;;;5.72;2.75;;;;;15.80;99020.00;;;;5053267;28;20068;-62
2023/05/30 02:39:28;;;;;;;8.55;2.65;;;;;15.80;99027.00;;;;5055445;28;20044;-62
2023/05/30 02:41:55;;;;;;;6.05;2.40;;;;;15.80;99020.00;;;;5038081;28;20040;-63
2023/05/30 02:44:22;;;;;;;5.70;2.40;;;;;15.90;99022.00;;;;5038253;28;20524;-63
2023/05/30 02:46:50;;;;;;;8.10;2.67;;;;;15.80;99023.00;;;;5054507;28;20049;-63
2023/05/30 02:49:18;;;;;;;5.25;2.78;;;;;15.90;99028.00;;;;5053154;28;20088;-63
2023/05/30 02:51:47;;;;;;;8.75;3.17;;;;;16.00;99022.00;;;;5053140;28;20037;-62
2023/05/30 02:54:20;;;;;;;9.15;3.10;;;;;16.20;99030.00;;;;5053381;28;20469;-62
2023/05/30 02:57:06;;;;;;;8.70;2.80;;;;;16.20;99029.00;;;;5054379;28;20914;-62
2023/05/30 02:59:53;;;;;;;7.82;3.00;;;;;16.20;99028.00;;;;5054549;28;20056;-62
2023/05/30 03:02:20;;;;;;;6.18;2.88;;;;;16.00;99029.00;;;;5053454;28;20049;-62
2023/05/30 03:04:47;;;;;;;7.38;3.03;;;;;16.00;99028.00;;;;5036766;28;20079;-63
2023/05/30 03:07:17;;;;;;;8.68;3.80;;;;;16.10;99036.00;;;;5052474;28;20060;-62
2023/05/30 03:09:45;;;;;;;7.45;2.83;;;;;16.10;99035.00;;;;5051467;28;20144;-61
2023/05/30 03:12:12;;;;;;;5.45;2.63;;;;;16.00;99039.00;;;;5051560;28;20047;-63
2023/05/30 03:14:39;;;;;;;6.72;3.03;;;;;15.90;99050.00;;;;5051506;28;20041;-62
2023/05/30 03:17:06;;;;;;;7.38;3.60;;;;;15.90;99035.00;;;;5052688;28;20041;-62
2023/05/30 03:19:33;;;;;;;7.40;3.28;;;;;16.00;99047.00;;;;5053042;28;20049;-63
2023/05/30 03:22:03;;;;;;;5.10;3.08;;;;;16.00;99037.00;;;;5053047;28;20069;-63
2023/05/30 03:24:31;;;;;;;8.27;4.55;;;;;16.00;99053.00;;;;5054121;28;20056;-63
2023/05/30 03:26:57;;;;;;;8.55;3.20;;;;;16.00;99047.00;;;;5053320;28;20056;-61
2023/05/30 03:29:24;;;;;;;8.68;2.95;;;;;16.00;99051.00;;;;5053320;28;20049;-62
2023/05/30 03:31:52;;;;;;;4.68;2.95;;;;;16.10;99049.00;;;;5053959;28;20041;-62
2023/05/30 03:34:19;;;;;;;5.40;3.10;;;;;16.10;99054.00;;;;5054074;28;20055;-62
2023/05/30 03:36:46;;;;;;;6.40;3.05;;;;;15.80;99048.00;;;;5051974;28;20049;-62
2023/05/30 03:39:13;;;;;;;6.22;2.95;;;;;15.70;99050.00;;;;5052480;28;20099;-62
2023/05/30 03:41:40;;;;;;;9.20;3.85;;;;;15.70;99043.00;;;;5051916;28;20080;-62
2023/05/30 03:44:07;;;;;;;6.75;3.42;;;;;15.60;99049.00;;;;5050769;28;20080;-61
2023/05/30 03:46:33;;;;;;;7.75;2.83;;;;;15.60;99040.00;;;;5051607;28;20072;-62
2023/05/30 03:49:01;;;;;;;9.60;3.42;;;;;15.70;99040.00;;;;5051460;28;20079;-61
2023/05/30 03:51:27;;;;;;;20.00;10.90;;;;;15.60;99043.00;;;;5051538;28;20491;-64
2023/05/30 03:53:54;;;;;;;5.30;3.38;;;;;15.50;99039.00;;;;5052841;28;20095;-63
2023/05/30 03:56:21;;;;;;;14.30;6.53;;;;;15.50;99049.00;;;;5050728;28;20147;-62
2023/05/30 03:58:47;;;;;;;5.70;2.75;;;;;15.50;99037.00;;;;5051702;28;20037;-63
2023/05/30 04:01:14;;;;;;;9.48;4.05;;;;;15.50;99047.00;;;;5050493;28;20065;-63
2023/05/30 04:03:45;;;;;;;7.40;3.10;;;;;15.50;99027.00;;;;5052368;28;20094;-62
2023/05/30 04:06:11;;;;;;;7.35;2.80;;;;;15.50;99038.00;;;;5053143;28;20095;-63
2023/05/30 04:08:40;;;;;;;9.80;3.83;;;;;15.60;99041.00;;;;5052969;28;20044;-62
2023/05/30 04:11:08;;;;;;;7.35;2.83;;;;;15.60;99041.00;;;;5055220;28;20083;-61
2023/05/30 04:13:35;;;;;;;8.45;3.50;;;;;15.60;99044.00;;;;5038563;28;20080;-61
2023/05/30 04:16:01;;;;;;;6.38;3.15;;;;;15.60;99042.00;;;;5055407;28;20060;-61
2023/05/30 04:18:31;;;;;;;5.45;2.38;;;;;15.60;99042.00;;;;5056143;28;20056;-62
2023/05/30 04:20:57;;;;;;;8.23;2.90;;;;;15.60;99050.00;;;;5055471;28;20094;-61
2023/05/30 04:23:25;;;;;;;9.35;3.10;;;;;15.60;99048.00;;;;5055497;28;20091;-62
2023/05/30 04:25:51;;;;;;;11.38;2.90;;;;;15.70;99052.00;;;;5053406;28;20045;-62
2023/05/30 04:28:19;;;;;;;6.57;2.78;;;;;15.70;99054.00;;;;5054926;28;20037;-62
2023/05/30 04:30:49;;;;;;;6.55;2.90;;;;;15.70;99057.00;;;;5037152;28;20049;-62
2023/05/30 04:33:18;;;;;;;7.47;3.13;;;;;15.80;99063.00;;;;5054463;28;20048;-62
2023/05/30 04:35:45;;;;;;;6.15;3.33;;;;;15.80;99065.00;;;;5053249;28;20049;-63
2023/05/30 04:38:16;;;;;;;8.68;2.80;;;;;15.90;99057.00;;;;5053438;28;20141;-63
2023/05/30 04:40:43;;;;;;;8.57;3.10;;;;;15.90;99064.00;;;;5053588;28;20048;-63
2023/05/30 04:43:12;;;;;;;6.65;2.80;;;;;16.00;99068.00;;;;5053194;28;20041;-63
2023/05/30 04:45:42;;;;;;;8.00;3.28;;;;;16.00;99062.00;;;;5053218;28;20049;-62
2023/05/30 04:48:11;;;;;;;10.30;3.60;;;;;16.10;99066.00;;;;5053178;28;20044;-63
2023/05/30 04:50:38;;;;;;;8.68;3.00;;;;;16.30;99070.00;;;;5052974;28;20079;-62
2023/05/30 04:53:05;;;;;;;8.90;3.55;;;;;16.30;99069.00;;;;5037057;28;20098;-63
2023/05/30 04:55:32;;;;;;;7.22;2.47;;;;;16.50;99075.00;;;;5053165;28;20052;-63
2023/05/30 04:57:58;;;;;;;6.38;2.40;;;;;16.50;99072.00;;;;5053256;28;20060;-63
2023/05/30 05:00:25;;;;;;;7.38;3.08;;;;;16.50;99076.00;;;;5052975;28;20045;-64
2023/05/30 05:02:51;;;;;;;9.30;2.83;;;;;16.50;99072.00;;;;5053213;28;20041;-62
2023/05/30 05:05:18;;;;;;;6.05;2.60;;;;;16.50;99079.00;;;;5054343;28;20066;-62
2023/05/30 05:07:45;;;;;;;7.55;3.15;;;;;16.50;99082.00;;;;5052998;28;20212;-63
2023/05/30 05:10:11;;;;;;;9.77;3.28;;;;;16.50;99083.00;;;;5053399;28;20051;-63
2023/05/30 05:12:38;;;;;;;6.93;2.35;;;;;16.50;99089.00;;;;5054189;28;20043;-63
2023/05/30 05:15:05;;;;;;;5.93;2.60;;;;;16.50;99098.00;;;;5052948;28;20041;-62
2023/05/30 05:17:32;;;;;;;10.32;3.13;;;;;16.40;99088.00;;;;5054114;28;20045;-63
2023/05/30 05:19:58;;;;;;;5.45;2.40;;;;;16.50;99087.00;;;;5053045;28;20083;-63
2023/05/30 05:22:26;;;;;;;11.23;2.80;;;;;16.70;99095.00;;;;5054197;28;20037;-63
2023/05/30 05:24:52;;;;;;;10.65;2.80;;;;;16.60;99099.00;;;;5053784;28;20045;-62
2023/05/30 05:27:19;;;;;;;5.22;2.60;;;;;16.60;99097.00;;;;5052565;28;20443;-62
2023/05/30 05:29:46;;;;;;;8.52;2.70;;;;;16.60;99100.00;;;;5053272;28;20603;-63
2023/05/30 05:32:13;;;;;;;8.68;3.03;;;;;16.70;99113.00;;;;5053574;28;20045;-63
2023/05/30 05:34:39;;;;;;;11.23;3.15;;;;;16.70;99106.00;;;;5052311;28;20048;-61
2023/05/30 05:37:06;;;;;;;7.75;2.92;;;;;16.70;99103.00;;;;5052212;28;20132;-62
2023/05/30 05:39:32;;;;;;;11.68;2.67;;;;;16.70;99104.00;;;;5053103;28;20562;-63
2023/05/30 05:42:01;;;;;;;4.80;2.67;;;;;16.80;99101.00;;;;5053483;28;20037;-63
2023/05/30 05:44:28;;;;;;;7.13;2.50;;;;;16.80;99108.00;;;;5053359;28;20049;-63
2023/05/30 05:46:54;;;;;;;8.55;2.75;;;;;16.80;99111.00;;;;5053630;28;20059;-64
2023/05/30 05:49:21;;;;;;;6.78;2.42;;;;;16.80;99108.00;;;;5053287;28;20044;-62
2023/05/30 05:51:48;;;;;;;7.63;2.67;;;;;16.80;99119.00;;;;5053304;28;20044;-62
2023/05/30 05:54:16;;;;;;;5.80;2.58;;;;;16.90;99117.00;;;;5053324;28;20430;-63
2023/05/30 05:56:43;;;;;;;6.63;2.85;;;;;16.90;99119.00;;;;5051919;28;20413;-63
2023/05/30 05:59:10;;;;;;;8.45;3.00;;;;;17.00;99111.00;;;;5052837;28;20053;-63
2023/05/30 06:01:36;;;;;;;7.82;3.05;;;;;17.10;99114.00;;;;5051804;28;20048;-62
2023/05/30 06:04:10;;;;;;;5.85;2.50;;;;;17.10;99111.00;;;;5053497;28;20049;-63
2023/05/30 06:06:38;;;;;;;8.60;2.58;;;;;17.10;99109.00;;;;5052036;28;20098;-62
2023/05/30 06:09:04;;;;;;;8.13;3.03;;;;;17.30;99115.00;;;;5052844;28;20045;-62
2023/05/30 06:11:31;;;;;;;10.73;3.25;;;;;17.30;99110.00;;;;5055386;28;20549;-62
2023/05/30 06:13:58;;;;;;;8.18;3.10;;;;;17.40;99112.00;;;;5063061;28;20049;-63
2023/05/30 06:16:24;;;;;;;5.00;2.50;;;;;17.30;99113.00;;;;5059519;28;20059;-63
2023/05/30 06:18:51;;;;;;;11.35;2.55;;;;;17.40;99117.00;;;;5053084;28;20106;-61
2023/05/30 06:21:17;;;;;;;8.35;2.70;;;;;17.50;99120.00;;;;5052616;28;20398;-62
2023/05/30 06:23:44;;;;;;;6.93;3.08;;;;;17.60;99128.00;;;;5051405;28;20048;-63
2023/05/30 06:26:11;;;;;;;7.43;3.35;;;;;17.70;99123.00;;;;5052758;28;20073;-61
2023/05/30 06:28:37;;;;;;;11.05;3.22;;;;;17.70;99115.00;;;;5051297;28;20051;-62
2023/05/30 06:31:04;;;;;;;9.40;2.85;;;;;17.60;99119.00;;;;5051296;28;20438;-63
2023/05/30 06:33:31;;;;;;;5.78;2.55;;;;;17.60;99124.00;;;;5052974;28;20049;-63
2023/05/30 06:35:57;;;;;;;8.85;2.67;;;;;17.70;99119.00;;;;5051523;28;20041;-63
2023/05/30 06:38:25;;;;;;;6.80;2.70;;;;;17.80;99113.00;;;;5052476;28;20036;-63
2023/05/30 06:40:52;;;;;;;10.52;2.42;;;;;17.80;99110.00;;;;5050892;28;20098;-63
2023/05/30 06:43:18;;;;;;;7.07;2.45;;;;;18.00;99123.00;;;;5050969;28;20044;-64
2023/05/30 06:45:45;;;;;;;6.25;2.45;;;;;18.00;99132.00;;;;5051098;28;20065;-64
2023/05/30 06:48:12;;;;;;;9.57;2.70;;;;;18.10;99125.00;;;;5051975;28;20041;-63
2023/05/30 06:50:38;;;;;;;5.72;2.63;;;;;18.20;99124.00;;;;5052034;28;20045;-62
2023/05/30 06:53:05;;;;;;;4.90;2.08;;;;;18.30;99138.00;;;;5052167;28;20067;-63
2023/05/30 06:55:32;;;;;;;7.90;3.60;;;;;18.30;99138.00;;;;5050878;28;20044;-61
2023/05/30 06:57:58;;;;;;;10.15;2.90;;;;;18.40;99131.00;;;;5050704;28;20044;-62
2023/05/30 07:00:25;;;;;;;7.78;2.72;;;;;18.40;99144.00;;;;5033916;28;20051;-62
2023/05/30 07:02:52;;;;;;;6.35;3.00;;;;;18.40;99134.00;;;;5050387;28;20056;-62
2023/05/30 07:05:18;;;;;;;10.40;2.70;;;;;18.60;99140.00;;;;5051812;28;20041;-62
2023/05/30 07:07:45;;;;;;;8.45;2.88;;;;;18.60;99136.00;;;;5051830;28;20124;-63
2023/05/30 07:10:12;;;;;;;13.63;2.80;;;;;18.80;99138.00;;;;5052088;28;20041;-62
2023/05/30 07:12:39;;;;;;;9.15;2.80;;;;;18.90;99135.00;;;;5052153;28;20124;-62
2023/05/30 07:15:06;;;;;;;8.13;3.08;;;;;19.00;99137.00;;;;5051923;28;20052;-61
2023/05/30 07:17:33;;;;;;;7.05;2.83;;;;;19.00;99140.00;;;;5051939;28;20045;-61
2023/05/30 07:20:00;;;;;;;11.27;3.17;;;;;19.00;99130.00;;;;5050439;28;20158;-61
2023/05/30 07:22:27;;;;;;;7.75;2.65;;;;;19.00;99124.00;;;;5033666;28;20049;-62
2023/05/30 07:24:53;;;;;;;9.27;2.70;;;;;19.10;99135.00;;;;5051694;28;20049;-61
2023/05/30 07:27:20;;;;;;;6.82;2.78;;;;;19.10;99129.00;;;;5050749;28;20139;-61
2023/05/30 07:29:47;;;;;;;11.07;4.32;;;;;19.10;99137.00;;;;5049920;28;20079;-60
2023/05/30 07:32:13;;;;;;;7.05;3.13;;;;;19.20;99136.00;;;;5050374;28;20048;-61
2023/05/30 07:34:40;;;;;;;9.38;2.83;;;;;19.30;99135.00;;;;5050295;28;20041;-62
2023/05/30 07:37:07;;;;;;;5.20;2.65;;;;;19.40;99145.00;;;;5050432;28;20056;-61
2023/05/30 07:39:34;;;;;;;7.45;2.55;;;;;19.60;99145.00;;;;5050112;28;20144;-62
2023/05/30 07:42:01;;;;;;;9.55;2.67;;;;;19.50;99148.00;;;;5051509;28;20047;-62
2023/05/30 07:44:28;;;;;;;8.25;2.70;;;;;19.40;99146.00;;;;5054540;28;20061;-62
2023/05/30 07:46:55;;;;;;;10.65;3.13;;;;;19.20;99143.00;;;;5055632;28;20120;-62
2023/05/30 07:49:22;;;;;;;7.72;2.50;;;;;19.20;99137.00;;;;5054030;28;20045;-62
2023/05/30 07:51:48;;;;;;;8.45;2.55;;;;;19.30;99138.00;;;;5055659;28;20065;-63
2023/05/30 07:54:16;;;;;;;8.07;3.15;;;;;19.40;99141.00;;;;5054142;28;20045;-63
2023/05/30 07:56:42;;;;;;;7.28;2.70;;;;;19.40;99147.00;;;;5055339;28;20081;-62
2023/05/30 07:59:09;;;;;;;10.13;3.45;;;;;19.50;99149.00;;;;5055729;28;20048;-63
2023/05/30 08:01:36;;;;;;;6.97;2.92;;;;;19.50;99144.00;;;;5054044;28;20068;-63
2023/05/30 08:04:02;;;;;;;9.32;3.72;;;;;19.60;99140.00;;;;5054226;28;20068;-63
2023/05/30 08:06:31;;;;;;;8.32;2.92;;;;;19.50;99147.00;;;;5053382;28;20040;-65
2023/05/30 08:08:57;;;;;;;7.10;2.65;;;;;19.60;99151.00;;;;5054955;28;20486;-63
2023/05/30 08:11:25;;;;;;;6.85;2.65;;;;;19.70;99152.00;;;;5055478;28;20069;-62
2023/05/30 08:13:52;;;;;;;6.97;2.30;;;;;19.90;99147.00;;;;5056905;28;20490;-62
2023/05/30 08:16:20;;;;;;;6.95;2.25;;;;;19.80;99143.00;;;;5039031;28;20045;-64
2023/05/30 08:18:47;;;;;;;6.95;2.45;;;;;19.90;99145.00;;;;5055160;28;20528;-62
2023/05/30 08:21:14;;;;;;;7.30;2.60;;;;;19.80;99140.00;;;;5056177;28;20055;-62
2023/05/30 08:23:40;;;;;;;4.88;2.42;;;;;19.90;99145.00;;;;5056610;28;20037;-62
2023/05/30 08:26:08;;;;;;;12.05;2.70;;;;;19.90;99150.00;;;;5055755;28;20049;-62
2023/05/30 08:28:35;;;;;;;7.97;2.80;;;;;20.00;99145.00;;;;5055011;28;20044;-62
2023/05/30 08:31:04;;;;;;;9.68;2.88;;;;;20.20;99146.00;;;;5053311;28;20045;-62
2023/05/30 08:33:34;;;;;;;5.03;2.13;;;;;20.30;99144.00;;;;5054905;28;20603;-63
2023/05/30 08:36:01;;;;;;;6.18;2.70;;;;;20.50;99147.00;;;;5054593;28;20121;-64
2023/05/30 08:38:27;;;;;;;7.55;2.60;;;;;20.40;99140.00;;;;5053273;28;20128;-64
2023/05/30 08:40:54;;;;;;;10.77;2.60;;;;;20.60;99141.00;;;;5052857;28;20490;-62
2023/05/30 08:43:21;;;;;;;9.85;2.95;;;;;20.40;99134.00;;;;5054302;28;20473;-62
2023/05/30 08:45:52;;;;;;;5.70;2.45;;;;;20.40;99140.00;;;;5054065;28;20128;-62
2023/05/30 08:48:20;;;;;;;8.65;2.55;;;;;20.60;99150.00;;;;5053921;28;20065;-63
2023/05/30 08:50:47;;;;;;;7.22;2.72;;;;;20.60;99143.00;;;;5053417;28;20401;-62
2023/05/30 08:53:18;;;;;;;10.43;2.70;;;;;20.50;99138.00;;;;5054220;28;20105;-66
2023/05/30 08:55:56;;;;;;;5.40;2.45;;;;;20.50;99138.00;;;;5052167;28;20053;-66
2023/05/30 08:58:27;;;;;;;6.38;2.78;;;;;20.50;99140.00;;;;5054446;28;20052;-66
2023/05/30 09:00:54;;;;;;;5.78;2.17;;;;;20.50;99144.00;;;;5052832;28;20048;-61
2023/05/30 09:03:22;;;;;;;8.73;2.90;;;;;20.40;99141.00;;;;5053771;28;20116;-62
2023/05/30 09:05:51;;;;;;;8.55;2.70;;;;;20.40;99147.00;;;;5053731;28;20072;-62
2023/05/30 09:08:18;;;;;;;7.45;2.95;;;;;20.40;99136.00;;;;5053869;28;20045;-62
2023/05/30 09:10:48;;;;;;;7.10;2.60;;;;;20.50;99142.00;;;;5053789;28;20041;-62
2023/05/30 09:13:15;;;;;;;9.77;2.70;;;;;20.60;99150.00;;;;5054475;28;20406;-63
2023/05/30 09:15:43;;;;;;;7.07;2.67;;;;;20.50;99134.00;;;;5054135;28;20049;-61
2023/05/30 09:18:11;;;;;;;7.50;2.50;;;;;20.50;99143.00;;;;5053613;28;20041;-61
2023/05/30 09:20:38;;;;;;;6.47;2.80;;;;;20.40;99145.00;;;;5052067;28;20040;-62
2023/05/30 09:23:10;;;;;;;6.53;2.50;;;;;20.50;99143.00;;;;5053622;28;20041;-61
2023/05/30 09:25:48;;;;;;;5.85;2.50;;;;;20.60;99147.00;;;;5053479;28;20409;-61
2023/05/30 09:28:22;;;;;;;7.97;2.55;;;;;20.80;99152.00;;;;5053509;28;20048;-62
2023/05/30 09:30:54;;;;;;;10.80;2.63;;;;;20.90;99149.00;;;;5053318;28;20064;-62
2023/05/30 09:33:51;;;;;;;6.15;2.63;;;;;21.00;99147.00;;;;5054004;28;20037;-63
2023/05/30 09:36:19;;;;;;;7.53;2.80;;;;;21.10;99155.00;;;;5054403;28;20494;-63
2023/05/30 09:38:55;;;;;;;6.70;2.65;;;;;21.10;99155.00;;;;5053740;28;20044;-62
2023/05/30 09:41:23;;;;;;;6.90;2.78;;;;;21.00;99151.00;;;;5053314;28;20560;-62
2023/05/30 09:43:53;;;;;;;8.15;3.00;;;;;21.00;99147.00;;;;5053215;28;20041;-62
2023/05/30 09:46:25;;;;;;;7.80;2.90;;;;;21.10;99149.00;;;;5053130;28;20103;-62
2023/05/30 09:48:52;;;;;;;7.80;2.88;;;;;21.10;99152.00;;;;5053030;28;20045;-61
2023/05/30 09:51:21;;;;;;;10.80;2.72;;;;;21.00;99155.00;;;;5053225;28;20521;-63
2023/05/30 09:54:01;;;;;;;7.72;2.50;;;;;21.10;99163.00;;;;5053242;28;20041;-63
2023/05/30 09:56:35;;;;;;;6.28;2.50;;;;;21.20;99155.00;;;;5053496;28;20387;-63
2023/05/30 09:59:13;;;;;;;8.40;3.33;;;;;21.20;99150.00;;;;5053121;28;20094;-62
2023/05/30 10:01:45;;;;;;;45.53;41.40;;;;;21.40;99146.00;;;;5053229;28;20041;-62
2023/05/30 10:04:13;;;;;;;22.63;19.45;;;;;21.50;99150.00;;;;5053192;28;20043;-63
2023/05/30 10:06:43;;;;;;;9.55;6.32;;;;;21.60;99148.00;;;;5052490;28;20049;-64
2023/05/30 10:09:11;;;;;;;13.52;6.15;;;;;21.70;99147.00;;;;5051610;28;20254;-62
2023/05/30 10:11:39;;;;;;;8.23;2.80;;;;;21.60;99144.00;;;;5052987;28;20102;-64
2023/05/30 10:14:07;;;;;;;8.07;3.78;;;;;21.70;99146.00;;;;5054344;28;20093;-63
2023/05/30 10:16:37;;;;;;;8.75;3.67;;;;;21.80;99157.00;;;;5055720;28;20480;-62
2023/05/30 10:19:09;;;;;;;8.50;3.92;;;;;21.80;99142.00;;;;5060698;28;20049;-62
2023/05/30 10:21:37;;;;;;;13.02;5.47;;;;;21.70;99140.00;;;;5060163;28;20041;-63
2023/05/30 10:24:06;;;;;;;8.07;3.60;;;;;21.70;99142.00;;;;5052323;28;20106;-63
2023/05/30 10:26:36;;;;;;;8.27;3.90;;;;;21.90;99145.00;;;;5052536;28;20128;-62
2023/05/30 10:29:06;;;;;;;10.88;4.72;;;;;22.10;99145.00;;;;5052373;28;20132;-63
2023/05/30 10:31:34;;;;;;;9.35;3.63;;;;;22.10;99143.00;;;;5052547;28;20446;-63
2023/05/30 10:34:02;;;;;;;8.35;4.30;;;;;22.10;99144.00;;;;5052791;28;20037;-62
2023/05/30 10:36:29;;;;;;;17.67;7.03;;;;;21.90;99152.00;;;;5052367;28;20037;-62
2023/05/30 10:39:02;;;;;;;14.23;8.15;;;;;21.90;99139.00;;;;5051970;28;20051;-63
2023/05/30 10:41:51;;;;;;;14.45;7.10;;;;;21.90;99139.00;;;;5050872;28;20072;-63
2023/05/30 10:44:54;;;;;;;7.88;2.90;;;;;22.10;99138.00;;;;5052293;28;20045;-62
2023/05/30 10:47:45;;;;;;;6.05;2.78;;;;;22.10;99135.00;;;;5052212;28;20529;-63
2023/05/30 10:50:26;;;;;;;7.30;2.90;;;;;22.20;99137.00;;;;5051914;28;20110;-64
2023/05/30 10:52:56;;;;;;;10.25;3.78;;;;;22.20;99130.00;;;;5052399;28;20041;-64
2023/05/30 10:55:24;;;;;;;5.97;2.85;;;;;22.30;99121.00;;;;5052080;28;20045;-63
2023/05/30 10:57:51;;;;;;;5.85;2.45;;;;;22.40;99122.00;;;;5052204;28;20565;-63
2023/05/30 11:00:27;;;;;;;8.40;2.63;;;;;22.50;99133.00;;;;5051699;28;20111;-64
2023/05/30 11:02:54;;;;;;;5.65;2.50;;;;;22.30;99122.00;;;;5051917;28;20045;-63
2023/05/30 11:05:27;;;;;;;7.15;2.65;;;;;22.30;99125.00;;;;5050215;28;20053;-64
2023/05/30 11:07:56;;;;;;;7.05;2.58;;;;;22.30;99117.00;;;;5051940;28;20041;-62
2023/05/30 11:10:27;;;;;;;5.38;2.67;;;;;22.50;99111.00;;;;5051674;28;20048;-62
2023/05/30 11:13:08;;;;;;;9.68;2.63;;;;;22.60;99114.00;;;;5051803;28;20461;-61
2023/05/30 11:15:35;;;;;;;5.03;2.65;;;;;22.60;99107.00;;;;5051606;28;20067;-62
2023/05/30 11:18:14;;;;;;;6.53;2.90;;;;;22.60;99108.00;;;;5052721;28;20048;-62
2023/05/30 11:20:56;;;;;;;9.73;2.50;;;;;22.60;99106.00;;;;5054743;28;20106;-62
2023/05/30 11:23:24;;;;;;;10.07;2.47;;;;;22.60;99099.00;;;;5055993;28;20099;-62
2023/05/30 11:25:55;;;;;;;9.00;3.00;;;;;22.70;99092.00;;;;5055916;28;20116;-63
2023/05/30 11:28:34;;;;;;;6.57;2.38;;;;;22.80;99099.00;;;;5056190;28;20423;-62
2023/05/30 11:31:15;;;;;;;7.20;2.70;;;;;22.70;99099.00;;;;5055638;28;20120;-63
2023/05/30 11:33:46;;;;;;;7.05;2.65;;;;;22.70;99102.00;;;;5055856;28;20702;-62
2023/05/30 11:36:13;;;;;;;6.88;2.35;;;;;22.60;99095.00;;;;5055524;28;20041;-62
2023/05/30 11:38:46;;;;;;;6.75;2.85;;;;;22.60;99095.00;;;;5055075;28;20047;-62
2023/05/30 11:41:15;;;;;;;8.00;3.03;;;;;22.80;99080.00;;;;5056003;28;20040;-64
2023/05/30 11:43:43;;;;;;;6.53;2.53;;;;;22.70;99094.00;;;;5056286;28;20573;-62
2023/05/30 11:46:10;;;;;;;7.60;2.90;;;;;22.70;99090.00;;;;5055936;28;20076;-63
2023/05/30 11:48:37;;;;;;;6.60;2.60;;;;;22.70;99096.00;;;;5054947;28;20044;-63
2023/05/30 11:51:06;;;;;;;5.57;2.53;;;;;22.90;99090.00;;;;5055459;28;20049;-61
2023/05/30 11:53:32;;;;;;;7.00;2.38;;;;;22.90;99093.00;;;;5055513;28;20445;-62
2023/05/30 11:55:59;;;;;;;7.07;2.90;;;;;22.90;99093.00;;;;5054047;28;20072;-61
2023/05/30 11:58:26;;;;;;;7.85;2.63;;;;;22.90;99093.00;;;;5054050;28;20072;-64
2023/05/30 12:00:52;;;;;;;7.53;3.00;;;;;23.00;99085.00;;;;5053649;28;20076;-63
2023/05/30 12:03:19;;;;;;;6.03;2.65;;;;;23.20;99098.00;;;;5055389;28;20447;-60
2023/05/30 12:05:47;;;;;;;5.38;2.17;;;;;23.20;99098.00;;;;5054813;28;20041;-61
2023/05/30 12:08:17;;;;;;;6.82;2.83;;;;;23.20;99090.00;;;;5055134;28;20131;-63
2023/05/30 12:10:44;;;;;;;3.60;2.10;;;;;23.20;99098.00;;;;5053559;28;20143;-61
2023/05/30 12:13:10;;;;;;;9.20;2.50;;;;;23.30;99086.00;;;;5053487;28;20075;-63
2023/05/30 12:15:37;;;;;;;4.65;2.25;;;;;23.20;99095.00;;;;5055157;28;20052;-63
2023/05/30 12:18:04;;;;;;;4.35;2.17;;;;;23.20;99084.00;;;;5055395;28;20055;-63
2023/05/30 12:20:31;;;;;;;5.38;2.30;;;;;23.30;99082.00;;;;5054939;28;20128;-62
2023/05/30 12:23:04;;;;;;;6.78;2.50;;;;;23.50;99086.00;;;;5054860;28;20144;-63
2023/05/30 12:25:31;;;;;;;;;;;;;23.40;99078.00;;;;5055206;28;20560;-63